sensor_id;sensor_type;location;lat;lon;timestamp;P1;durP1;ratioP1;P2;durP2;ratioP2
74707;SDS011;63360;50.104;8.074;2023-04-02T00:00:28;2.50;;;1.10;;
74707;SDS011;63360;50.104;8.074;2023-04-02T00:07:57;2.50;;;1.27;;
74707;SDS011;63360;50.104;8.074;2023-04-02T00:10:31;2.97;;;1.07;;
74707;SDS011;63360;50.104;8.074;2023-04-02T00:13:01;3.38;;;1.02;;
74707;SDS011;63360;50.104;8.074;2023-04-02T00:15:30;2.03;;;0.80;;
74707;SDS011;63360;50.104;8.074;2023-04-02T00:17:58;3.20;;;1.00;;
74707;SDS011;63360;50.104;8.074;2023-04-02T00:20:25;2.50;;;1.02;;
74707;SDS011;63360;50.104;8.074;2023-04-02T00:22:53;3.07;;;1.10;;
74707;SDS011;63360;50.104;8.074;2023-04-02T00:25:21;2.35;;;0.88;;
74707;SDS011;63360;50.104;8.074;2023-04-02T00:27:51;2.03;;;0.90;;
74707;SDS011;63360;50.104;8.074;2023-04-02T00:30:17;2.47;;;1.00;;
74707;SDS011;63360;50.104;8.074;2023-04-02T00:32:44;3.78;;;0.80;;
74707;SDS011;63360;50.104;8.074;2023-04-02T00:35:12;2.57;;;1.00;;
74707;SDS011;63360;50.104;8.074;2023-04-02T00:37:46;1.90;;;0.90;;
74707;SDS011;63360;50.104;8.074;2023-04-02T00:40:18;1.90;;;0.80;;
74707;SDS011;63360;50.104;8.074;2023-04-02T00:42:50;1.80;;;0.70;;
74707;SDS011;63360;50.104;8.074;2023-04-02T00:45:23;2.08;;;0.90;;
74707;SDS011;63360;50.104;8.074;2023-04-02T00:47:54;2.23;;;1.00;;
74707;SDS011;63360;50.104;8.074;2023-04-02T00:50:26;2.05;;;0.88;;
74707;SDS011;63360;50.104;8.074;2023-04-02T00:52:57;3.10;;;0.80;;
74707;SDS011;63360;50.104;8.074;2023-04-02T00:55:36;2.35;;;0.90;;
74707;SDS011;63360;50.104;8.074;2023-04-02T01:01:02;3.60;;;0.80;;
74707;SDS011;63360;50.104;8.074;2023-04-02T01:03:35;2.65;;;1.08;;
74707;SDS011;63360;50.104;8.074;2023-04-02T01:06:08;2.65;;;1.00;;
74707;SDS011;63360;50.104;8.074;2023-04-02T01:09:00;2.65;;;0.75;;
74707;SDS011;63360;50.104;8.074;2023-04-02T01:17:03;3.15;;;1.10;;
74707;SDS011;63360;50.104;8.074;2023-04-02T01:25:06;2.00;;;0.80;;
74707;SDS011;63360;50.104;8.074;2023-04-02T01:27:45;2.60;;;1.20;;
74707;SDS011;63360;50.104;8.074;2023-04-02T01:30:22;2.58;;;1.17;;
74707;SDS011;63360;50.104;8.074;2023-04-02T01:32:49;2.13;;;0.93;;
74707;SDS011;63360;50.104;8.074;2023-04-02T01:35:16;2.50;;;1.05;;
74707;SDS011;63360;50.104;8.074;2023-04-02T01:37:47;5.18;;;1.00;;
74707;SDS011;63360;50.104;8.074;2023-04-02T01:40:43;2.27;;;1.00;;
74707;SDS011;63360;50.104;8.074;2023-04-02T01:45:51;3.05;;;1.00;;
74707;SDS011;63360;50.104;8.074;2023-04-02T01:48:24;2.17;;;0.90;;
74707;SDS011;63360;50.104;8.074;2023-04-02T01:50:55;2.50;;;1.00;;
74707;SDS011;63360;50.104;8.074;2023-04-02T01:53:24;2.73;;;1.20;;
74707;SDS011;63360;50.104;8.074;2023-04-02T01:55:55;2.35;;;1.20;;
74707;SDS011;63360;50.104;8.074;2023-04-02T01:58:26;2.40;;;0.95;;
74707;SDS011;63360;50.104;8.074;2023-04-02T02:01:00;2.35;;;0.90;;
74707;SDS011;63360;50.104;8.074;2023-04-02T02:03:31;2.10;;;0.90;;
74707;SDS011;63360;50.104;8.074;2023-04-02T02:05:58;3.43;;;1.07;;
74707;SDS011;63360;50.104;8.074;2023-04-02T02:11:03;4.05;;;1.00;;
74707;SDS011;63360;50.104;8.074;2023-04-02T02:13:31;2.33;;;0.95;;
74707;SDS011;63360;50.104;8.074;2023-04-02T02:15:58;2.88;;;1.02;;
74707;SDS011;63360;50.104;8.074;2023-04-02T02:18:26;2.93;;;1.13;;
74707;SDS011;63360;50.104;8.074;2023-04-02T02:20:55;2.47;;;1.02;;
74707;SDS011;63360;50.104;8.074;2023-04-02T02:23:23;2.30;;;0.95;;
74707;SDS011;63360;50.104;8.074;2023-04-02T02:25:51;2.30;;;0.90;;
74707;SDS011;63360;50.104;8.074;2023-04-02T02:28:20;2.75;;;1.08;;
74707;SDS011;63360;50.104;8.074;2023-04-02T02:30:52;2.37;;;0.90;;
74707;SDS011;63360;50.104;8.074;2023-04-02T02:33:27;2.58;;;0.90;;
74707;SDS011;63360;50.104;8.074;2023-04-02T02:35:58;2.97;;;0.90;;
74707;SDS011;63360;50.104;8.074;2023-04-02T02:38:31;3.35;;;0.77;;
74707;SDS011;63360;50.104;8.074;2023-04-02T02:41:02;2.60;;;0.77;;
74707;SDS011;63360;50.104;8.074;2023-04-02T02:43:32;2.33;;;0.90;;
74707;SDS011;63360;50.104;8.074;2023-04-02T02:46:04;2.03;;;0.75;;
74707;SDS011;63360;50.104;8.074;2023-04-02T02:48:35;2.42;;;0.98;;
74707;SDS011;63360;50.104;8.074;2023-04-02T02:51:06;2.20;;;1.13;;
74707;SDS011;63360;50.104;8.074;2023-04-02T02:53:44;2.47;;;1.00;;
74707;SDS011;63360;50.104;8.074;2023-04-02T02:56:15;5.50;;;2.13;;
74707;SDS011;63360;50.104;8.074;2023-04-02T02:58:42;4.32;;;1.83;;
74707;SDS011;63360;50.104;8.074;2023-04-02T03:01:08;3.35;;;1.75;;
74707;SDS011;63360;50.104;8.074;2023-04-02T03:03:35;3.20;;;1.45;;
74707;SDS011;63360;50.104;8.074;2023-04-02T03:06:04;2.92;;;1.33;;
74707;SDS011;63360;50.104;8.074;2023-04-02T03:08:41;3.13;;;1.50;;
74707;SDS011;63360;50.104;8.074;2023-04-02T03:11:15;2.90;;;1.17;;
74707;SDS011;63360;50.104;8.074;2023-04-02T03:13:49;2.55;;;1.23;;
74707;SDS011;63360;50.104;8.074;2023-04-02T03:16:33;3.47;;;1.60;;
74707;SDS011;63360;50.104;8.074;2023-04-02T03:22:05;2.87;;;1.10;;
74707;SDS011;63360;50.104;8.074;2023-04-02T03:24:48;4.07;;;1.83;;
74707;SDS011;63360;50.104;8.074;2023-04-02T03:27:33;2.50;;;1.10;;
74707;SDS011;63360;50.104;8.074;2023-04-02T03:30:09;4.60;;;1.50;;
74707;SDS011;63360;50.104;8.074;2023-04-02T03:32:39;2.85;;;1.00;;
74707;SDS011;63360;50.104;8.074;2023-04-02T03:35:14;3.17;;;0.90;;
74707;SDS011;63360;50.104;8.074;2023-04-02T03:37:54;2.60;;;1.20;;
74707;SDS011;63360;50.104;8.074;2023-04-02T03:40:27;2.35;;;1.00;;
74707;SDS011;63360;50.104;8.074;2023-04-02T03:43:14;2.58;;;1.05;;
74707;SDS011;63360;50.104;8.074;2023-04-02T03:45:48;2.38;;;1.00;;
74707;SDS011;63360;50.104;8.074;2023-04-02T03:48:22;4.10;;;1.00;;
74707;SDS011;63360;50.104;8.074;2023-04-02T03:53:25;2.45;;;1.10;;
74707;SDS011;63360;50.104;8.074;2023-04-02T03:55:54;3.03;;;0.90;;
74707;SDS011;63360;50.104;8.074;2023-04-02T03:58:23;7.65;;;1.08;;
74707;SDS011;63360;50.104;8.074;2023-04-02T04:03:30;2.47;;;0.98;;
74707;SDS011;63360;50.104;8.074;2023-04-02T04:06:05;2.45;;;1.00;;
74707;SDS011;63360;50.104;8.074;2023-04-02T04:08:40;2.72;;;1.00;;
74707;SDS011;63360;50.104;8.074;2023-04-02T04:11:13;3.38;;;1.05;;
74707;SDS011;63360;50.104;8.074;2023-04-02T04:13:46;2.40;;;1.20;;
74707;SDS011;63360;50.104;8.074;2023-04-02T04:16:20;2.55;;;1.20;;
74707;SDS011;63360;50.104;8.074;2023-04-02T04:19:03;2.22;;;0.98;;
74707;SDS011;63360;50.104;8.074;2023-04-02T04:21:37;2.72;;;1.30;;
74707;SDS011;63360;50.104;8.074;2023-04-02T04:24:04;4.80;;;1.25;;
74707;SDS011;63360;50.104;8.074;2023-04-02T04:27:14;3.13;;;1.30;;
74707;SDS011;63360;50.104;8.074;2023-04-02T04:32:27;2.88;;;1.27;;
74707;SDS011;63360;50.104;8.074;2023-04-02T04:35:03;2.70;;;1.00;;
74707;SDS011;63360;50.104;8.074;2023-04-02T04:37:39;3.00;;;1.33;;
74707;SDS011;63360;50.104;8.074;2023-04-02T04:40:10;3.00;;;1.23;;
74707;SDS011;63360;50.104;8.074;2023-04-02T04:42:44;4.45;;;1.20;;
74707;SDS011;63360;50.104;8.074;2023-04-02T04:45:37;3.72;;;1.48;;
74707;SDS011;63360;50.104;8.074;2023-04-02T04:48:15;5.47;;;1.90;;
74707;SDS011;63360;50.104;8.074;2023-04-02T04:50:56;3.85;;;1.70;;
74707;SDS011;63360;50.104;8.074;2023-04-02T04:53:29;4.10;;;1.73;;
74707;SDS011;63360;50.104;8.074;2023-04-02T04:55:56;3.63;;;1.58;;
74707;SDS011;63360;50.104;8.074;2023-04-02T05:01:14;3.58;;;1.52;;
74707;SDS011;63360;50.104;8.074;2023-04-02T05:06:36;4.47;;;1.50;;
74707;SDS011;63360;50.104;8.074;2023-04-02T05:14:56;3.35;;;1.30;;
74707;SDS011;63360;50.104;8.074;2023-04-02T05:20:32;3.30;;;1.30;;
74707;SDS011;63360;50.104;8.074;2023-04-02T05:23:03;3.15;;;1.40;;
74707;SDS011;63360;50.104;8.074;2023-04-02T05:25:54;3.35;;;1.65;;
74707;SDS011;63360;50.104;8.074;2023-04-02T05:28:31;4.97;;;1.30;;
74707;SDS011;63360;50.104;8.074;2023-04-02T05:31:20;3.53;;;1.40;;
74707;SDS011;63360;50.104;8.074;2023-04-02T05:33:51;3.23;;;1.13;;
74707;SDS011;63360;50.104;8.074;2023-04-02T05:36:37;3.47;;;1.58;;
74707;SDS011;63360;50.104;8.074;2023-04-02T05:39:07;3.85;;;1.55;;
74707;SDS011;63360;50.104;8.074;2023-04-02T05:41:42;5.45;;;1.92;;
74707;SDS011;63360;50.104;8.074;2023-04-02T05:46:48;4.40;;;1.90;;
74707;SDS011;63360;50.104;8.074;2023-04-02T05:49:23;4.40;;;1.80;;
74707;SDS011;63360;50.104;8.074;2023-04-02T05:51:57;5.47;;;2.30;;
74707;SDS011;63360;50.104;8.074;2023-04-02T05:54:31;5.05;;;2.33;;
74707;SDS011;63360;50.104;8.074;2023-04-02T05:57:03;4.97;;;2.38;;
74707;SDS011;63360;50.104;8.074;2023-04-02T05:59:37;6.00;;;2.40;;
74707;SDS011;63360;50.104;8.074;2023-04-02T06:02:16;5.55;;;2.50;;
74707;SDS011;63360;50.104;8.074;2023-04-02T06:05:13;6.65;;;2.90;;
74707;SDS011;63360;50.104;8.074;2023-04-02T06:07:43;5.75;;;2.60;;
74707;SDS011;63360;50.104;8.074;2023-04-02T06:10:16;6.03;;;2.42;;
74707;SDS011;63360;50.104;8.074;2023-04-02T06:15:29;7.18;;;3.00;;
74707;SDS011;63360;50.104;8.074;2023-04-02T06:20:25;5.43;;;2.40;;
74707;SDS011;63360;50.104;8.074;2023-04-02T06:22:54;5.30;;;2.50;;
74707;SDS011;63360;50.104;8.074;2023-04-02T06:25:34;5.17;;;2.57;;
74707;SDS011;63360;50.104;8.074;2023-04-02T06:28:05;5.30;;;2.30;;
74707;SDS011;63360;50.104;8.074;2023-04-02T06:30:37;5.40;;;2.40;;
74707;SDS011;63360;50.104;8.074;2023-04-02T06:33:07;5.55;;;2.47;;
74707;SDS011;63360;50.104;8.074;2023-04-02T06:35:38;6.90;;;1.98;;
74707;SDS011;63360;50.104;8.074;2023-04-02T06:38:10;4.70;;;1.60;;
74707;SDS011;63360;50.104;8.074;2023-04-02T06:40:49;3.28;;;1.50;;
74707;SDS011;63360;50.104;8.074;2023-04-02T06:43:26;3.85;;;1.92;;
74707;SDS011;63360;50.104;8.074;2023-04-02T06:46:08;3.17;;;0.90;;
74707;SDS011;63360;50.104;8.074;2023-04-02T06:48:56;1.33;;;0.50;;
74707;SDS011;63360;50.104;8.074;2023-04-02T06:51:29;1.30;;;0.53;;
74707;SDS011;63360;50.104;8.074;2023-04-02T06:53:58;1.08;;;0.40;;
74707;SDS011;63360;50.104;8.074;2023-04-02T06:56:34;2.17;;;0.40;;
74707;SDS011;63360;50.104;8.074;2023-04-02T06:59:13;1.00;;;0.50;;
74707;SDS011;63360;50.104;8.074;2023-04-02T07:01:42;0.80;;;0.30;;
74707;SDS011;63360;50.104;8.074;2023-04-02T07:04:14;0.60;;;0.20;;
74707;SDS011;63360;50.104;8.074;2023-04-02T07:06:40;0.60;;;0.20;;
74707;SDS011;63360;50.104;8.074;2023-04-02T07:09:07;1.45;;;0.30;;
74707;SDS011;63360;50.104;8.074;2023-04-02T07:11:34;0.40;;;0.20;;
74707;SDS011;63360;50.104;8.074;2023-04-02T07:14:00;1.48;;;0.40;;
74707;SDS011;63360;50.104;8.074;2023-04-02T07:16:28;0.93;;;0.47;;
74707;SDS011;63360;50.104;8.074;2023-04-02T07:18:56;0.80;;;0.40;;
74707;SDS011;63360;50.104;8.074;2023-04-02T07:21:28;0.85;;;0.40;;
74707;SDS011;63360;50.104;8.074;2023-04-02T07:23:54;1.00;;;0.50;;
74707;SDS011;63360;50.104;8.074;2023-04-02T07:26:22;1.40;;;0.60;;
74707;SDS011;63360;50.104;8.074;2023-04-02T07:28:52;2.13;;;0.70;;
74707;SDS011;63360;50.104;8.074;2023-04-02T07:31:24;1.13;;;0.50;;
74707;SDS011;63360;50.104;8.074;2023-04-02T07:33:54;2.00;;;0.70;;
74707;SDS011;63360;50.104;8.074;2023-04-02T07:36:25;1.95;;;0.77;;
74707;SDS011;63360;50.104;8.074;2023-04-02T07:38:54;1.75;;;0.70;;
74707;SDS011;63360;50.104;8.074;2023-04-02T07:41:21;1.60;;;0.60;;
74707;SDS011;63360;50.104;8.074;2023-04-02T07:43:48;1.63;;;0.70;;
74707;SDS011;63360;50.104;8.074;2023-04-02T07:46:15;2.42;;;0.75;;
74707;SDS011;63360;50.104;8.074;2023-04-02T07:48:43;2.08;;;0.85;;
74707;SDS011;63360;50.104;8.074;2023-04-02T07:51:23;2.88;;;1.00;;
74707;SDS011;63360;50.104;8.074;2023-04-02T07:53:51;3.00;;;0.87;;
74707;SDS011;63360;50.104;8.074;2023-04-02T07:56:21;2.40;;;1.08;;
74707;SDS011;63360;50.104;8.074;2023-04-02T07:58:49;1.98;;;1.02;;
74707;SDS011;63360;50.104;8.074;2023-04-02T08:03:54;2.13;;;0.98;;
74707;SDS011;63360;50.104;8.074;2023-04-02T08:06:22;3.23;;;1.30;;
74707;SDS011;63360;50.104;8.074;2023-04-02T08:08:49;3.28;;;1.00;;
74707;SDS011;63360;50.104;8.074;2023-04-02T08:11:16;2.72;;;0.90;;
74707;SDS011;63360;50.104;8.074;2023-04-02T08:13:42;3.00;;;1.15;;
74707;SDS011;63360;50.104;8.074;2023-04-02T08:16:09;3.83;;;1.48;;
74707;SDS011;63360;50.104;8.074;2023-04-02T08:18:36;2.20;;;0.90;;
74707;SDS011;63360;50.104;8.074;2023-04-02T08:21:05;1.45;;;0.55;;
74707;SDS011;63360;50.104;8.074;2023-04-02T08:23:34;1.60;;;0.80;;
74707;SDS011;63360;50.104;8.074;2023-04-02T08:26:01;1.10;;;0.50;;
74707;SDS011;63360;50.104;8.074;2023-04-02T08:28:27;1.30;;;0.50;;
74707;SDS011;63360;50.104;8.074;2023-04-02T08:30:54;0.80;;;0.30;;
74707;SDS011;63360;50.104;8.074;2023-04-02T08:33:20;0.98;;;0.30;;
74707;SDS011;63360;50.104;8.074;2023-04-02T08:35:47;0.68;;;0.30;;
74707;SDS011;63360;50.104;8.074;2023-04-02T08:38:15;0.80;;;0.30;;
74707;SDS011;63360;50.104;8.074;2023-04-02T08:40:44;0.50;;;0.20;;
74707;SDS011;63360;50.104;8.074;2023-04-02T08:46:03;0.50;;;0.30;;
74707;SDS011;63360;50.104;8.074;2023-04-02T08:48:37;0.80;;;0.40;;
74707;SDS011;63360;50.104;8.074;2023-04-02T08:51:09;0.98;;;0.40;;
74707;SDS011;63360;50.104;8.074;2023-04-02T08:53:47;0.85;;;0.40;;
74707;SDS011;63360;50.104;8.074;2023-04-02T08:56:15;1.77;;;0.30;;
74707;SDS011;63360;50.104;8.074;2023-04-02T09:01:19;2.65;;;0.60;;
74707;SDS011;63360;50.104;8.074;2023-04-02T09:04:13;0.68;;;0.30;;
74707;SDS011;63360;50.104;8.074;2023-04-02T09:06:45;0.90;;;0.30;;
74707;SDS011;63360;50.104;8.074;2023-04-02T09:09:14;0.80;;;0.30;;
74707;SDS011;63360;50.104;8.074;2023-04-02T09:12:00;1.13;;;0.45;;
74707;SDS011;63360;50.104;8.074;2023-04-02T09:17:02;1.73;;;0.30;;
74707;SDS011;63360;50.104;8.074;2023-04-02T09:19:35;1.00;;;0.40;;
74707;SDS011;63360;50.104;8.074;2023-04-02T09:24:56;0.80;;;0.40;;
74707;SDS011;63360;50.104;8.074;2023-04-02T09:27:28;0.45;;;0.20;;
74707;SDS011;63360;50.104;8.074;2023-04-02T09:30:05;0.40;;;0.13;;
74707;SDS011;63360;50.104;8.074;2023-04-02T09:32:44;0.50;;;0.20;;
74707;SDS011;63360;50.104;8.074;2023-04-02T09:35:17;0.50;;;0.20;;
74707;SDS011;63360;50.104;8.074;2023-04-02T09:38:37;1.65;;;0.30;;
74707;SDS011;63360;50.104;8.074;2023-04-02T09:40:48;0.55;;;0.30;;
74707;SDS011;63360;50.104;8.074;2023-04-02T09:48:36;0.70;;;0.30;;
74707;SDS011;63360;50.104;8.074;2023-04-02T09:51:09;0.45;;;0.20;;
74707;SDS011;63360;50.104;8.074;2023-04-02T09:53:43;0.60;;;0.30;;
74707;SDS011;63360;50.104;8.074;2023-04-02T09:56:15;0.70;;;0.30;;
74707;SDS011;63360;50.104;8.074;2023-04-02T09:58:42;0.77;;;0.40;;
74707;SDS011;63360;50.104;8.074;2023-04-02T10:01:23;1.83;;;0.40;;
74707;SDS011;63360;50.104;8.074;2023-04-02T10:07:02;1.52;;;0.60;;
74707;SDS011;63360;50.104;8.074;2023-04-02T10:09:34;1.17;;;0.50;;
74707;SDS011;63360;50.104;8.074;2023-04-02T10:12:04;1.52;;;0.70;;
74707;SDS011;63360;50.104;8.074;2023-04-02T10:14:36;1.63;;;0.50;;
74707;SDS011;63360;50.104;8.074;2023-04-02T10:17:16;1.60;;;0.80;;
74707;SDS011;63360;50.104;8.074;2023-04-02T10:19:47;1.95;;;0.70;;
74707;SDS011;63360;50.104;8.074;2023-04-02T10:22:18;1.50;;;0.70;;
74707;SDS011;63360;50.104;8.074;2023-04-02T10:24:46;2.90;;;0.80;;
74707;SDS011;63360;50.104;8.074;2023-04-02T10:29:46;1.60;;;0.68;;
74707;SDS011;63360;50.104;8.074;2023-04-02T10:32:36;1.30;;;0.60;;
74707;SDS011;63360;50.104;8.074;2023-04-02T10:40:27;1.60;;;0.70;;
74707;SDS011;63360;50.104;8.074;2023-04-02T10:46:19;1.95;;;0.80;;
74707;SDS011;63360;50.104;8.074;2023-04-02T10:48:57;1.80;;;0.70;;
74707;SDS011;63360;50.104;8.074;2023-04-02T10:51:38;3.45;;;1.00;;
74707;SDS011;63360;50.104;8.074;2023-04-02T10:54:17;3.03;;;1.00;;
74707;SDS011;63360;50.104;8.074;2023-04-02T10:57:03;2.35;;;1.10;;
74707;SDS011;63360;50.104;8.074;2023-04-02T10:59:34;2.10;;;0.65;;
74707;SDS011;63360;50.104;8.074;2023-04-02T11:02:08;2.40;;;1.17;;
74707;SDS011;63360;50.104;8.074;2023-04-02T11:04:54;1.88;;;0.80;;
74707;SDS011;63360;50.104;8.074;2023-04-02T11:07:27;1.63;;;0.63;;
74707;SDS011;63360;50.104;8.074;2023-04-02T11:09:57;1.83;;;0.80;;
74707;SDS011;63360;50.104;8.074;2023-04-02T11:15:24;1.90;;;1.08;;
74707;SDS011;63360;50.104;8.074;2023-04-02T11:17:52;2.53;;;1.10;;
74707;SDS011;63360;50.104;8.074;2023-04-02T11:23:12;2.25;;;1.23;;
74707;SDS011;63360;50.104;8.074;2023-04-02T11:25:43;2.33;;;1.05;;
74707;SDS011;63360;50.104;8.074;2023-04-02T11:28:25;2.35;;;0.98;;
74707;SDS011;63360;50.104;8.074;2023-04-02T11:30:54;2.38;;;1.20;;
74707;SDS011;63360;50.104;8.074;2023-04-02T11:33:24;2.00;;;0.80;;
74707;SDS011;63360;50.104;8.074;2023-04-02T11:36:56;4.90;;;2.20;;
74707;SDS011;63360;50.104;8.074;2023-04-02T11:44:44;3.58;;;1.50;;
74707;SDS011;63360;50.104;8.074;2023-04-02T11:47:14;2.83;;;1.53;;
74707;SDS011;63360;50.104;8.074;2023-04-02T11:52:21;2.00;;;1.10;;
74707;SDS011;63360;50.104;8.074;2023-04-02T11:54:57;2.33;;;1.20;;
74707;SDS011;63360;50.104;8.074;2023-04-02T11:57:38;2.47;;;1.13;;
74707;SDS011;63360;50.104;8.074;2023-04-02T12:00:21;3.07;;;1.40;;
74707;SDS011;63360;50.104;8.074;2023-04-02T12:05:58;2.97;;;1.50;;
74707;SDS011;63360;50.104;8.074;2023-04-02T12:11:35;2.38;;;1.20;;
74707;SDS011;63360;50.104;8.074;2023-04-02T12:17:02;2.55;;;1.40;;
74707;SDS011;63360;50.104;8.074;2023-04-02T12:19:32;2.22;;;1.10;;
74707;SDS011;63360;50.104;8.074;2023-04-02T12:21:59;2.60;;;1.20;;
74707;SDS011;63360;50.104;8.074;2023-04-02T12:24:26;2.80;;;1.50;;
74707;SDS011;63360;50.104;8.074;2023-04-02T12:27:06;2.70;;;1.17;;
74707;SDS011;63360;50.104;8.074;2023-04-02T12:29:40;2.95;;;1.38;;
74707;SDS011;63360;50.104;8.074;2023-04-02T12:32:29;3.80;;;1.52;;
74707;SDS011;63360;50.104;8.074;2023-04-02T12:34:56;2.55;;;1.30;;
74707;SDS011;63360;50.104;8.074;2023-04-02T12:37:26;3.85;;;1.33;;
74707;SDS011;63360;50.104;8.074;2023-04-02T12:39:58;3.20;;;1.50;;
74707;SDS011;63360;50.104;8.074;2023-04-02T12:42:34;2.70;;;1.23;;
74707;SDS011;63360;50.104;8.074;2023-04-02T12:45:03;2.80;;;1.40;;
74707;SDS011;63360;50.104;8.074;2023-04-02T12:47:31;2.97;;;1.60;;
74707;SDS011;63360;50.104;8.074;2023-04-02T12:49:59;3.38;;;1.63;;
74707;SDS011;63360;50.104;8.074;2023-04-02T12:52:27;3.90;;;2.00;;
74707;SDS011;63360;50.104;8.074;2023-04-02T12:54:58;2.60;;;1.42;;
74707;SDS011;63360;50.104;8.074;2023-04-02T12:59:53;3.42;;;1.60;;
74707;SDS011;63360;50.104;8.074;2023-04-02T13:02:21;3.03;;;1.60;;
74707;SDS011;63360;50.104;8.074;2023-04-02T13:04:59;3.10;;;1.60;;
74707;SDS011;63360;50.104;8.074;2023-04-02T13:07:30;3.25;;;1.85;;
74707;SDS011;63360;50.104;8.074;2023-04-02T13:09:59;3.70;;;1.65;;
74707;SDS011;63360;50.104;8.074;2023-04-02T13:12:34;3.38;;;1.67;;
74707;SDS011;63360;50.104;8.074;2023-04-02T13:15:04;2.58;;;1.42;;
74707;SDS011;63360;50.104;8.074;2023-04-02T13:17:46;3.00;;;1.30;;
74707;SDS011;63360;50.104;8.074;2023-04-02T13:25:55;4.15;;;1.70;;
74707;SDS011;63360;50.104;8.074;2023-04-02T13:28:22;4.80;;;1.90;;
74707;SDS011;63360;50.104;8.074;2023-04-02T13:30:49;3.90;;;1.90;;
74707;SDS011;63360;50.104;8.074;2023-04-02T13:33:15;4.30;;;1.88;;
74707;SDS011;63360;50.104;8.074;2023-04-02T13:35:42;3.30;;;1.85;;
74707;SDS011;63360;50.104;8.074;2023-04-02T13:38:09;5.80;;;2.08;;
74707;SDS011;63360;50.104;8.074;2023-04-02T13:40:36;3.55;;;1.73;;
74707;SDS011;63360;50.104;8.074;2023-04-02T13:43:03;3.20;;;1.80;;
74707;SDS011;63360;50.104;8.074;2023-04-02T13:45:32;2.95;;;1.48;;
74707;SDS011;63360;50.104;8.074;2023-04-02T13:48:03;3.58;;;1.60;;
74707;SDS011;63360;50.104;8.074;2023-04-02T13:50:31;3.58;;;1.60;;
74707;SDS011;63360;50.104;8.074;2023-04-02T13:53:04;4.65;;;2.30;;
74707;SDS011;63360;50.104;8.074;2023-04-02T13:55:36;3.83;;;1.70;;
74707;SDS011;63360;50.104;8.074;2023-04-02T13:58:05;3.00;;;1.60;;
74707;SDS011;63360;50.104;8.074;2023-04-02T14:00:32;3.25;;;1.70;;
74707;SDS011;63360;50.104;8.074;2023-04-02T14:03:04;3.63;;;1.58;;
74707;SDS011;63360;50.104;8.074;2023-04-02T14:13:56;3.28;;;1.75;;
74707;SDS011;63360;50.104;8.074;2023-04-02T14:16:41;4.05;;;1.67;;
74707;SDS011;63360;50.104;8.074;2023-04-02T14:19:20;3.75;;;1.70;;
74707;SDS011;63360;50.104;8.074;2023-04-02T14:30:13;4.47;;;1.73;;
74707;SDS011;63360;50.104;8.074;2023-04-02T14:35:49;3.87;;;1.87;;
74707;SDS011;63360;50.104;8.074;2023-04-02T14:43:46;4.00;;;1.80;;
74707;SDS011;63360;50.104;8.074;2023-04-02T14:46:25;3.72;;;1.73;;
74707;SDS011;63360;50.104;8.074;2023-04-02T14:49:02;3.97;;;1.90;;
74707;SDS011;63360;50.104;8.074;2023-04-02T14:51:43;4.80;;;1.70;;
74707;SDS011;63360;50.104;8.074;2023-04-02T14:54:28;3.88;;;2.15;;
74707;SDS011;63360;50.104;8.074;2023-04-02T14:57:03;4.00;;;2.00;;
74707;SDS011;63360;50.104;8.074;2023-04-02T15:02:18;4.33;;;2.00;;
74707;SDS011;63360;50.104;8.074;2023-04-02T15:04:57;4.10;;;2.10;;
74707;SDS011;63360;50.104;8.074;2023-04-02T15:07:32;6.05;;;2.60;;
74707;SDS011;63360;50.104;8.074;2023-04-02T15:10:13;5.45;;;2.20;;
74707;SDS011;63360;50.104;8.074;2023-04-02T15:12:47;4.78;;;2.30;;
74707;SDS011;63360;50.104;8.074;2023-04-02T15:15:21;4.77;;;2.30;;
74707;SDS011;63360;50.104;8.074;2023-04-02T15:18:15;5.57;;;2.63;;
74707;SDS011;63360;50.104;8.074;2023-04-02T15:21:01;6.22;;;2.88;;
74707;SDS011;63360;50.104;8.074;2023-04-02T15:29:52;5.93;;;2.73;;
74707;SDS011;63360;50.104;8.074;2023-04-02T15:32:00;8.10;;;3.08;;
74707;SDS011;63360;50.104;8.074;2023-04-02T15:34:40;6.35;;;3.05;;
74707;SDS011;63360;50.104;8.074;2023-04-02T15:46:08;4.90;;;2.50;;
74707;SDS011;63360;50.104;8.074;2023-04-02T15:48:35;8.52;;;2.97;;
74707;SDS011;63360;50.104;8.074;2023-04-02T16:02:31;5.13;;;2.53;;
74707;SDS011;63360;50.104;8.074;2023-04-02T16:10:33;6.70;;;2.70;;
74707;SDS011;63360;50.104;8.074;2023-04-02T16:13:16;6.28;;;3.03;;
74707;SDS011;63360;50.104;8.074;2023-04-02T16:16:12;4.95;;;2.45;;
74707;SDS011;63360;50.104;8.074;2023-04-02T16:21:29;7.07;;;2.75;;
74707;SDS011;63360;50.104;8.074;2023-04-02T16:23:57;5.87;;;2.43;;
74707;SDS011;63360;50.104;8.074;2023-04-02T16:32:02;6.10;;;2.58;;
74707;SDS011;63360;50.104;8.074;2023-04-02T16:40:39;4.40;;;2.30;;
74707;SDS011;63360;50.104;8.074;2023-04-02T16:46:12;5.22;;;2.10;;
74707;SDS011;63360;50.104;8.074;2023-04-02T16:49:24;5.72;;;2.00;;
74707;SDS011;63360;50.104;8.074;2023-04-02T16:52:21;6.30;;;2.20;;
74707;SDS011;63360;50.104;8.074;2023-04-02T17:03:42;5.70;;;2.22;;
74707;SDS011;63360;50.104;8.074;2023-04-02T17:11:49;4.85;;;2.20;;
74707;SDS011;63360;50.104;8.074;2023-04-02T17:16:55;4.88;;;2.50;;
74707;SDS011;63360;50.104;8.074;2023-04-02T17:19:26;5.60;;;2.40;;
74707;SDS011;63360;50.104;8.074;2023-04-02T17:22:00;6.63;;;2.60;;
74707;SDS011;63360;50.104;8.074;2023-04-02T17:24:39;6.03;;;2.22;;
74707;SDS011;63360;50.104;8.074;2023-04-02T17:29:42;5.80;;;2.42;;
74707;SDS011;63360;50.104;8.074;2023-04-02T17:32:17;4.90;;;2.40;;
74707;SDS011;63360;50.104;8.074;2023-04-02T17:34:47;5.57;;;2.50;;
74707;SDS011;63360;50.104;8.074;2023-04-02T17:42:35;4.80;;;2.38;;
74707;SDS011;63360;50.104;8.074;2023-04-02T17:48:00;7.68;;;2.75;;
74707;SDS011;63360;50.104;8.074;2023-04-02T17:50:52;8.80;;;2.40;;
74707;SDS011;63360;50.104;8.074;2023-04-02T17:56:29;4.65;;;1.95;;
74707;SDS011;63360;50.104;8.074;2023-04-02T17:59:11;4.93;;;2.10;;
74707;SDS011;63360;50.104;8.074;2023-04-02T18:04:54;5.28;;;2.13;;
74707;SDS011;63360;50.104;8.074;2023-04-02T18:07:41;7.10;;;2.95;;
74707;SDS011;63360;50.104;8.074;2023-04-02T18:12:52;4.40;;;2.20;;
74707;SDS011;63360;50.104;8.074;2023-04-02T18:15:37;4.78;;;1.95;;
74707;SDS011;63360;50.104;8.074;2023-04-02T18:21:10;5.82;;;1.90;;
74707;SDS011;63360;50.104;8.074;2023-04-02T18:23:57;7.03;;;2.55;;
74707;SDS011;63360;50.104;8.074;2023-04-02T18:26:31;4.87;;;1.93;;
74707;SDS011;63360;50.104;8.074;2023-04-02T18:29:09;4.85;;;2.03;;
74707;SDS011;63360;50.104;8.074;2023-04-02T18:31:40;5.15;;;2.20;;
74707;SDS011;63360;50.104;8.074;2023-04-02T18:37:18;4.70;;;1.90;;
74707;SDS011;63360;50.104;8.074;2023-04-02T18:45:20;5.90;;;2.13;;
74707;SDS011;63360;50.104;8.074;2023-04-02T18:48:03;5.72;;;2.17;;
74707;SDS011;63360;50.104;8.074;2023-04-02T18:50:53;4.00;;;2.08;;
74707;SDS011;63360;50.104;8.074;2023-04-02T18:53:21;3.53;;;1.80;;
74707;SDS011;63360;50.104;8.074;2023-04-02T18:56:03;5.82;;;2.15;;
74707;SDS011;63360;50.104;8.074;2023-04-02T19:01:16;6.53;;;2.40;;
74707;SDS011;63360;50.104;8.074;2023-04-02T19:03:50;4.55;;;2.08;;
74707;SDS011;63360;50.104;8.074;2023-04-02T19:06:22;4.00;;;2.00;;
74707;SDS011;63360;50.104;8.074;2023-04-02T19:08:55;4.53;;;2.00;;
74707;SDS011;63360;50.104;8.074;2023-04-02T19:11:25;5.70;;;2.50;;
74707;SDS011;63360;50.104;8.074;2023-04-02T19:17:06;3.60;;;1.92;;
74707;SDS011;63360;50.104;8.074;2023-04-02T19:19:44;3.97;;;2.20;;
74707;SDS011;63360;50.104;8.074;2023-04-02T19:22:26;4.88;;;2.10;;
74707;SDS011;63360;50.104;8.074;2023-04-02T19:33:16;3.17;;;1.43;;
74707;SDS011;63360;50.104;8.074;2023-04-02T19:35:52;4.40;;;1.70;;
74707;SDS011;63360;50.104;8.074;2023-04-02T19:38:32;3.22;;;1.60;;
74707;SDS011;63360;50.104;8.074;2023-04-02T19:44:09;5.13;;;2.20;;
74707;SDS011;63360;50.104;8.074;2023-04-02T19:46:38;4.87;;;2.40;;
74707;SDS011;63360;50.104;8.074;2023-04-02T19:49:24;4.97;;;2.03;;